Time;durP1;ratioP1;P1;durP2;ratioP2;P2;SDS_P1;SDS_P2;PMS_P1;PMS_P2;Temp;Humidity;BMP_temperature;BMP_pressure;BME280_temperature;BME280_humidity;BME280_pressure;Samples;Min_cycle;Max_cycle;Signal;HPM_P1;HPM_P2
2023/08/14 00:00:16;;;;;;;6.93;4.13;;;;;;;;;;6283164;28;20533;-78
2023/08/14 00:03:20;;;;;;;4.70;4.30;;;;;;;;;;6286314;28;20302;-79
2023/08/14 00:06:24;;;;;;;3.22;3.10;;;;;;;;;;6283043;28;20290;-79
2023/08/14 00:09:27;;;;;;;4.20;3.45;;;;;;;;;;6283900;28;20295;-78
2023/08/14 00:12:33;;;;;;;4.68;4.22;;;;;;;;;;6283379;28;20587;-79
2023/08/14 00:15:37;;;;;;;7.38;4.45;;;;;;;;;;6283475;28;20414;-79
2023/08/14 00:18:41;;;;;;;3.88;3.67;;;;;;;;;;6283452;28;20294;-78
2023/08/14 00:21:45;;;;;;;4.30;4.00;;;;;;;;;;6287203;28;20239;-79
2023/08/14 00:24:48;;;;;;;4.25;3.92;;;;;;;;;;6288435;28;20305;-79
2023/08/14 00:27:54;;;;;;;3.75;3.58;;;;;;;;;;6288491;28;20302;-78
2023/08/14 00:30:58;;;;;;;4.78;4.35;;;;;;;;;;6288023;28;20286;-78
2023/08/14 00:34:02;;;;;;;4.40;4.15;;;;;;;;;;6288175;28;20303;-79
2023/08/14 00:37:06;;;;;;;4.40;4.10;;;;;;;;;;6287697;28;20298;-78
2023/08/14 00:40:11;;;;;;;7.45;4.07;;;;;;;;;;6286803;28;20299;-79
2023/08/14 00:43:16;;;;;;;4.38;4.15;;;;;;;;;;6287160;28;20286;-78
2023/08/14 00:46:21;;;;;;;3.70;3.50;;;;;;;;;;6288623;28;20306;-78
2023/08/14 00:49:25;;;;;;;4.50;4.18;;;;;;;;;;6288784;28;20299;-78
2023/08/14 00:52:31;;;;;;;4.05;3.85;;;;;;;;;;6288620;28;20291;-78
2023/08/14 00:55:35;;;;;;;6.35;4.28;;;;;;;;;;6286356;28;20493;-78
2023/08/14 00:58:41;;;;;;;6.15;4.13;;;;;;;;;;6286458;28;20299;-79
2023/08/14 01:01:44;;;;;;;4.80;3.92;;;;;;;;;;6286821;28;20452;-78
2023/08/14 01:04:48;;;;;;;4.32;4.22;;;;;;;;;;6287826;28;20290;-79
2023/08/14 01:07:52;;;;;;;3.90;3.70;;;;;;;;;;6286326;28;20294;-78
2023/08/14 01:10:59;;;;;;;5.60;3.60;;;;;;;;;;6288114;28;20591;-78
2023/08/14 01:14:09;;;;;;;6.45;4.50;;;;;;;;;;6289270;28;20347;-79
2023/08/14 01:17:15;;;;;;;4.18;3.88;;;;;;;;;;6286756;28;20303;-78
2023/08/14 01:20:19;;;;;;;4.45;4.28;;;;;;;;;;6286109;28;20295;-78
2023/08/14 01:23:29;;;;;;;4.15;3.90;;;;;;;;;;6285963;28;20292;-78
2023/08/14 01:26:35;;;;;;;5.53;5.03;;;;;;;;;;6287647;28;20363;-78
2023/08/14 01:29:39;;;;;;;4.90;4.60;;;;;;;;;;6286901;28;20295;-79
2023/08/14 01:32:43;;;;;;;8.18;5.65;;;;;;;;;;6285683;28;20311;-78
2023/08/14 01:35:53;;;;;;;5.60;5.20;;;;;;;;;;6241960;28;20293;-79
2023/08/14 01:39:03;;;;;;;9.43;7.65;;;;;;;;;;6269621;28;20562;-77
2023/08/14 01:42:13;;;;;;;8.45;7.45;;;;;;;;;;6236928;28;20596;-78
2023/08/14 01:45:20;;;;;;;8.45;6.25;;;;;;;;;;6237505;28;20296;-78
2023/08/14 01:48:24;;;;;;;6.68;5.95;;;;;;;;;;6269083;28;20443;-80
2023/08/14 01:51:29;;;;;;;9.02;8.02;;;;;;;;;;6236377;28;20312;-79
2023/08/14 01:54:33;;;;;;;10.13;8.43;;;;;;;;;;6235908;28;20297;-79
2023/08/14 01:57:38;;;;;;;9.60;8.10;;;;;;;;;;6237434;28;20260;-78
2023/08/14 02:00:42;;;;;;;9.93;8.52;;;;;;;;;;6235783;28;20296;-78
2023/08/14 02:03:46;;;;;;;14.23;8.40;;;;;;;;;;6235311;28;20307;-78
2023/08/14 02:06:50;;;;;;;9.90;8.40;;;;;;;;;;6237035;28;20299;-78
2023/08/14 02:09:54;;;;;;;7.85;7.05;;;;;;;;;;6239816;28;20284;-79
2023/08/14 02:12:59;;;;;;;7.72;6.88;;;;;;;;;;6261408;28;20279;-78
2023/08/14 02:16:04;;;;;;;6.70;5.78;;;;;;;;;;6261907;28;20303;-78
2023/08/14 02:19:08;;;;;;;7.78;5.80;;;;;;;;;;6260132;28;20300;-78
2023/08/14 02:22:12;;;;;;;4.72;4.53;;;;;;;;;;6261803;28;20295;-78
2023/08/14 02:25:16;;;;;;;6.05;5.05;;;;;;;;;;6261282;28;20296;-77
2023/08/14 02:28:21;;;;;;;5.20;4.60;;;;;;;;;;6260867;28;20311;-78
2023/08/14 02:31:25;;;;;;;5.57;4.85;;;;;;;;;;6260465;28;20311;-78
2023/08/14 02:34:33;;;;;;;4.53;4.22;;;;;;;;;;6275101;28;20301;-79
2023/08/14 02:37:37;;;;;;;4.72;4.43;;;;;;;;;;6286949;28;20465;-77
2023/08/14 02:40:41;;;;;;;4.60;4.20;;;;;;;;;;6284911;28;20290;-79
2023/08/14 02:43:46;;;;;;;4.88;4.57;;;;;;;;;;6284198;28;20291;-78
2023/08/14 02:46:50;;;;;;;5.47;4.90;;;;;;;;;;6284703;28;20546;-78
2023/08/14 02:49:54;;;;;;;4.50;4.20;;;;;;;;;;6285631;28;20298;-78
2023/08/14 02:52:58;;;;;;;4.53;4.22;;;;;;;;;;6288416;28;20356;-76
2023/08/14 02:56:02;;;;;;;5.03;4.40;;;;;;;;;;6285939;28;20302;-78
2023/08/14 02:59:07;;;;;;;4.80;4.30;;;;;;;;;;6283939;28;20304;-78
2023/08/14 03:02:11;;;;;;;5.10;4.35;;;;;;;;;;6283882;28;20442;-79
2023/08/14 03:05:15;;;;;;;5.15;4.22;;;;;;;;;;6284917;28;20322;-78
2023/08/14 03:08:19;;;;;;;5.72;4.28;;;;;;;;;;6285776;28;20298;-78
2023/08/14 03:11:23;;;;;;;4.40;3.90;;;;;;;;;;6285779;28;20571;-78
2023/08/14 03:14:28;;;;;;;4.38;4.05;;;;;;;;;;6284808;28;20290;-78
2023/08/14 03:17:32;;;;;;;5.95;4.10;;;;;;;;;;6283625;28;20291;-80
2023/08/14 03:20:36;;;;;;;5.95;4.30;;;;;;;;;;6282875;28;20307;-78
2023/08/14 03:23:40;;;;;;;4.88;4.38;;;;;;;;;;6284711;28;20290;-79
2023/08/14 03:26:44;;;;;;;5.18;4.53;;;;;;;;;;6284691;28;20291;-78
2023/08/14 03:29:50;;;;;;;4.95;4.60;;;;;;;;;;6283277;28;20302;-78
2023/08/14 03:32:54;;;;;;;4.45;4.18;;;;;;;;;;6282684;28;20302;-78
2023/08/14 03:35:59;;;;;;;4.53;4.07;;;;;;;;;;6283402;28;20291;-78
2023/08/14 03:39:03;;;;;;;4.50;4.20;;;;;;;;;;6282949;28;20310;-79
2023/08/14 03:42:07;;;;;;;6.55;5.25;;;;;;;;;;6287617;28;20322;-78
2023/08/14 03:45:12;;;;;;;5.93;4.38;;;;;;;;;;6282833;28;20290;-78
2023/08/14 03:48:16;;;;;;;4.72;4.30;;;;;;;;;;6282868;28;20303;-78
2023/08/14 03:51:20;;;;;;;5.50;4.07;;;;;;;;;;6284451;28;20291;-78
2023/08/14 03:54:24;;;;;;;4.40;4.20;;;;;;;;;;6283219;28;20295;-79
2023/08/14 03:57:28;;;;;;;4.55;4.00;;;;;;;;;;6288163;28;20291;-79
2023/08/14 04:00:35;;;;;;;4.50;4.20;;;;;;;;;;6288182;28;20394;-78
2023/08/14 04:03:40;;;;;;;4.53;4.13;;;;;;;;;;6289196;28;20455;-78
2023/08/14 04:06:47;;;;;;;4.50;4.05;;;;;;;;;;6289401;28;20244;-78
2023/08/14 04:09:51;;;;;;;4.18;3.97;;;;;;;;;;6289000;28;20295;-78
2023/08/14 04:12:55;;;;;;;4.53;4.20;;;;;;;;;;6287682;28;20286;-79
2023/08/14 04:16:03;;;;;;;4.80;4.45;;;;;;;;;;6288109;28;20294;-79
2023/08/14 04:19:07;;;;;;;4.53;4.22;;;;;;;;;;6290891;28;20571;-77
2023/08/14 04:22:11;;;;;;;6.68;4.60;;;;;;;;;;6289670;28;20295;-79
2023/08/14 04:25:18;;;;;;;4.28;3.97;;;;;;;;;;6287410;28;20307;-78
2023/08/14 04:28:22;;;;;;;4.25;4.00;;;;;;;;;;6288558;28;20319;-80
2023/08/14 04:31:27;;;;;;;4.35;4.13;;;;;;;;;;6287801;28;20298;-78
2023/08/14 04:34:32;;;;;;;10.88;4.40;;;;;;;;;;6286904;28;20303;-79
2023/08/14 04:37:36;;;;;;;8.52;4.43;;;;;;;;;;6286984;28;20315;-78
2023/08/14 04:40:42;;;;;;;6.45;3.85;;;;;;;;;;6287693;28;20295;-78
2023/08/14 04:43:46;;;;;;;4.32;3.92;;;;;;;;;;6287405;28;20299;-78
2023/08/14 04:46:52;;;;;;;5.47;3.80;;;;;;;;;;6287641;28;20294;-79
2023/08/14 04:50:06;;;;;;;4.32;3.88;;;;;;;;;;6287209;28;20306;-79
2023/08/14 04:53:11;;;;;;;4.78;3.85;;;;;;;;;;6288269;28;20289;-80
2023/08/14 04:56:16;;;;;;;5.18;3.78;;;;;;;;;;6287657;28;20295;-78
2023/08/14 04:59:20;;;;;;;10.07;4.15;;;;;;;;;;6288001;28;20598;-80
2023/08/14 05:02:26;;;;;;;4.72;4.00;;;;;;;;;;6287247;28;20302;-80
2023/08/14 05:05:30;;;;;;;5.03;3.60;;;;;;;;;;6286294;28;20298;-79
2023/08/14 05:08:34;;;;;;;4.53;3.88;;;;;;;;;;6287640;28;20514;-78
2023/08/14 05:11:38;;;;;;;8.98;3.97;;;;;;;;;;6286472;28;20462;-85
2023/08/14 05:14:42;;;;;;;4.20;3.60;;;;;;;;;;6286755;28;20294;-83
2023/08/14 05:17:48;;;;;;;3.85;3.72;;;;;;;;;;6286860;28;20299;-83
2023/08/14 05:20:53;;;;;;;6.07;4.05;;;;;;;;;;6287498;28;20474;-79
2023/08/14 05:23:57;;;;;;;6.47;3.90;;;;;;;;;;6286259;28;20303;-79
2023/08/14 05:27:01;;;;;;;4.28;3.97;;;;;;;;;;6286853;28;20303;-81
2023/08/14 05:30:05;;;;;;;7.68;4.07;;;;;;;;;;6290231;28;20321;-79
2023/08/14 05:33:11;;;;;;;4.30;3.90;;;;;;;;;;6285609;28;20327;-80
2023/08/14 05:36:14;;;;;;;4.72;4.20;;;;;;;;;;6286954;28;20443;-78
2023/08/14 05:39:19;;;;;;;5.65;3.58;;;;;;;;;;6286719;28;20291;-79
2023/08/14 05:42:23;;;;;;;8.77;4.05;;;;;;;;;;6287428;28;20292;-78
2023/08/14 05:45:27;;;;;;;12.00;4.25;;;;;;;;;;6287945;28;20299;-79
2023/08/14 05:48:32;;;;;;;5.38;4.28;;;;;;;;;;6285215;28;20471;-79
2023/08/14 05:51:38;;;;;;;4.15;3.78;;;;;;;;;;6286421;28;20243;-79
2023/08/14 05:54:42;;;;;;;8.90;4.47;;;;;;;;;;6286100;28;20294;-79
2023/08/14 05:57:45;;;;;;;7.72;4.22;;;;;;;;;;6286047;28;20260;-79
2023/08/14 06:00:49;;;;;;;4.38;3.25;;;;;;;;;;6286272;28;20267;-78
2023/08/14 06:03:55;;;;;;;8.70;4.15;;;;;;;;;;6286014;28;20295;-79
2023/08/14 06:06:59;;;;;;;5.93;3.65;;;;;;;;;;6286861;28;20291;-79
2023/08/14 06:10:05;;;;;;;9.82;4.63;;;;;;;;;;6285671;28;20295;-78
2023/08/14 06:13:09;;;;;;;8.02;3.65;;;;;;;;;;6287227;28;20571;-79
2023/08/14 06:16:13;;;;;;;7.20;4.15;;;;;;;;;;6286105;28;20327;-79
2023/08/14 06:19:18;;;;;;;4.18;3.65;;;;;;;;;;6284802;28;20295;-79
2023/08/14 06:22:22;;;;;;;8.85;3.97;;;;;;;;;;6285858;28;20299;-78
2023/08/14 06:25:29;;;;;;;3.80;3.33;;;;;;;;;;6285673;28;20588;-79
2023/08/14 06:28:32;;;;;;;5.03;3.88;;;;;;;;;;6285500;28;20348;-79
2023/08/14 06:31:36;;;;;;;8.85;4.00;;;;;;;;;;6285812;28;20508;-79
2023/08/14 06:34:43;;;;;;;5.68;3.92;;;;;;;;;;6285023;28;20315;-79
2023/08/14 06:37:47;;;;;;;8.68;3.80;;;;;;;;;;6285263;28;20287;-78
2023/08/14 06:40:50;;;;;;;9.77;3.60;;;;;;;;;;6285862;28;20302;-79
2023/08/14 06:43:54;;;;;;;7.47;3.80;;;;;;;;;;6284978;28;20317;-78
2023/08/14 06:46:59;;;;;;;17.05;4.40;;;;;;;;;;6285778;28;20291;-78
2023/08/14 06:50:05;;;;;;;8.10;3.83;;;;;;;;;;6285164;28;20295;-79
2023/08/14 06:53:09;;;;;;;8.98;3.90;;;;;;;;;;6285260;28;20302;-79
2023/08/14 06:56:13;;;;;;;10.93;3.60;;;;;;;;;;6285708;28;20348;-79
2023/08/14 06:59:16;;;;;;;9.80;3.63;;;;;;;;;;6283677;28;20298;-78
2023/08/14 07:02:20;;;;;;;8.25;4.22;;;;;;;;;;6284896;28;20348;-79
2023/08/14 07:05:26;;;;;;;7.75;3.67;;;;;;;;;;6284913;28;20302;-79
2023/08/14 07:08:30;;;;;;;11.20;3.72;;;;;;;;;;6284771;28;20311;-79
2023/08/14 07:11:38;;;;;;;15.48;3.85;;;;;;;;;;6286754;28;20367;-79
2023/08/14 07:14:41;;;;;;;8.45;3.80;;;;;;;;;;6283708;28;20311;-79
2023/08/14 07:17:46;;;;;;;8.52;3.38;;;;;;;;;;6283748;28;20290;-79
2023/08/14 07:20:51;;;;;;;12.07;3.67;;;;;;;;;;6284416;28;20294;-79
2023/08/14 07:23:59;;;;;;;8.95;3.90;;;;;;;;;;6283872;28;20388;-80
2023/08/14 07:27:02;;;;;;;11.73;3.72;;;;;;;;;;6284753;28;20339;-80
2023/08/14 07:30:09;;;;;;;9.85;4.00;;;;;;;;;;6282736;28;20302;-85
2023/08/14 07:33:15;;;;;;;12.15;4.45;;;;;;;;;;6284281;28;20299;-85
2023/08/14 07:36:20;;;;;;;7.55;3.67;;;;;;;;;;6284541;28;20299;-83
2023/08/14 07:39:24;;;;;;;13.13;3.30;;;;;;;;;;6284110;28;20323;-80
2023/08/14 07:42:28;;;;;;;7.80;3.10;;;;;;;;;;6284291;28;20298;-85
2023/08/14 07:45:32;;;;;;;4.20;2.80;;;;;;;;;;6283280;28;20294;-82
2023/08/14 07:48:36;;;;;;;5.35;3.05;;;;;;;;;;6284241;28;20484;-82
2023/08/14 07:51:41;;;;;;;11.20;3.53;;;;;;;;;;6287218;28;20335;-82
2023/08/14 07:54:45;;;;;;;11.50;3.08;;;;;;;;;;6283962;28;20298;-84
2023/08/14 07:57:49;;;;;;;5.38;2.90;;;;;;;;;;6283786;28;20243;-82
2023/08/14 08:00:54;;;;;;;8.52;3.40;;;;;;;;;;6267675;28;20579;-82
2023/08/14 08:04:00;;;;;;;6.18;2.53;;;;;;;;;;6258172;28;20315;-82
2023/08/14 08:07:06;;;;;;;7.72;2.75;;;;;;;;;;6260818;28;20303;-81
2023/08/14 08:10:10;;;;;;;7.88;3.00;;;;;;;;;;6265676;28;20330;-82
2023/08/14 08:13:14;;;;;;;6.25;3.17;;;;;;;;;;6285321;28;20296;-81
2023/08/14 08:16:18;;;;;;;6.13;3.45;;;;;;;;;;6286096;28;20298;-81
2023/08/14 08:19:22;;;;;;;5.32;3.20;;;;;;;;;;6285170;28;20318;-83
2023/08/14 08:22:27;;;;;;;7.32;3.13;;;;;;;;;;6286359;28;20437;-82
2023/08/14 08:25:31;;;;;;;5.18;3.10;;;;;;;;;;6285443;28;20291;-81
2023/08/14 08:28:35;;;;;;;6.90;3.05;;;;;;;;;;6285148;28;20370;-82
2023/08/14 08:31:41;;;;;;;8.63;3.38;;;;;;;;;;6286010;28;20289;-82
2023/08/14 08:34:45;;;;;;;6.03;3.15;;;;;;;;;;6286288;28;20298;-81
2023/08/14 08:37:50;;;;;;;9.80;3.15;;;;;;;;;;6293509;28;20294;-80
2023/08/14 08:40:54;;;;;;;6.47;3.22;;;;;;;;;;6299441;28;20254;-79
2023/08/14 08:44:01;;;;;;;4.68;2.92;;;;;;;;;;6302624;28;20255;-78
2023/08/14 08:47:08;;;;;;;4.55;2.78;;;;;;;;;;6302326;28;20251;-81
2023/08/14 08:50:12;;;;;;;7.60;3.38;;;;;;;;;;6288815;28;20763;-81
2023/08/14 08:53:18;;;;;;;7.07;3.22;;;;;;;;;;6289812;28;20473;-81
2023/08/14 08:56:22;;;;;;;4.38;2.80;;;;;;;;;;6287581;28;20299;-81
2023/08/14 08:59:26;;;;;;;5.80;2.95;;;;;;;;;;6288908;28;20304;-76
2023/08/14 09:02:30;;;;;;;13.88;3.40;;;;;;;;;;6289111;28;20295;-79
2023/08/14 09:05:34;;;;;;;2.70;2.00;;;;;;;;;;6288917;28;20466;-79
2023/08/14 09:08:40;;;;;;;2.95;2.47;;;;;;;;;;6288594;28;20298;-78
2023/08/14 09:11:43;;;;;;;5.07;3.20;;;;;;;;;;6289341;28;20294;-82
2023/08/14 09:15:02;;;;;;;6.55;3.15;;;;;;;;;;6288959;28;20459;-82
2023/08/14 09:18:06;;;;;;;6.25;3.13;;;;;;;;;;6288451;28;20291;-82
2023/08/14 09:21:11;;;;;;;5.35;2.88;;;;;;;;;;6288914;28;20315;-80
2023/08/14 09:24:16;;;;;;;2.92;2.72;;;;;;;;;;6288158;28;20291;-80
2023/08/14 09:27:20;;;;;;;6.72;2.83;;;;;;;;;;6291344;28;20577;-79
2023/08/14 09:30:25;;;;;;;4.07;2.22;;;;;;;;;;6287716;28;20291;-80
2023/08/14 09:33:29;;;;;;;3.03;2.45;;;;;;;;;;6287601;28;20303;-79
2023/08/14 09:36:34;;;;;;;8.77;2.95;;;;;;;;;;6287340;28;20572;-85
2023/08/14 09:39:39;;;;;;;4.38;2.83;;;;;;;;;;6288370;28;20299;-81
2023/08/14 09:42:44;;;;;;;3.72;2.63;;;;;;;;;;6287799;28;20540;-80
2023/08/14 09:45:49;;;;;;;4.47;2.60;;;;;;;;;;6288832;28;20469;-81
2023/08/14 09:48:53;;;;;;;3.40;3.00;;;;;;;;;;6290464;28;20291;-80
2023/08/14 09:51:57;;;;;;;2.80;2.28;;;;;;;;;;6289198;28;20299;-81
2023/08/14 09:55:03;;;;;;;2.83;1.85;;;;;;;;;;6289504;28;20319;-79
2023/08/14 09:58:14;;;;;;;9.45;2.80;;;;;;;;;;6289505;28;20295;-78
2023/08/14 10:01:19;;;;;;;3.22;2.90;;;;;;;;;;6287359;28;20286;-77
2023/08/14 10:04:23;;;;;;;6.10;2.92;;;;;;;;;;6287487;28;20291;-78
2023/08/14 10:07:27;;;;;;;4.60;2.38;;;;;;;;;;6285590;28;20306;-80
2023/08/14 10:10:34;;;;;;;5.40;2.78;;;;;;;;;;6285758;28;20299;-80
2023/08/14 10:13:43;;;;;;;6.75;3.03;;;;;;;;;;6287343;28;20390;-79
2023/08/14 10:16:48;;;;;;;3.38;2.30;;;;;;;;;;6285931;28;20291;-80
2023/08/14 10:19:53;;;;;;;4.80;2.40;;;;;;;;;;6285539;28;20295;-80
2023/08/14 10:22:57;;;;;;;5.10;2.90;;;;;;;;;;6285574;28;20304;-80
2023/08/14 10:26:03;;;;;;;4.63;2.72;;;;;;;;;;6284671;28;20306;-78
2023/08/14 10:29:07;;;;;;;2.25;2.10;;;;;;;;;;6285649;28;20295;-79
2023/08/14 10:32:11;;;;;;;5.30;2.75;;;;;;;;;;6285564;28;20342;-79
2023/08/14 10:35:15;;;;;;;8.52;2.45;;;;;;;;;;6284627;28;20515;-79
2023/08/14 10:38:19;;;;;;;5.10;2.95;;;;;;;;;;6284776;28;20291;-79
2023/08/14 10:41:33;;;;;;;4.85;2.55;;;;;;;;;;6285221;28;20591;-80
2023/08/14 10:44:37;;;;;;;2.85;1.98;;;;;;;;;;6284501;28;20294;-79
2023/08/14 10:47:42;;;;;;;8.95;2.67;;;;;;;;;;6284534;28;20330;-76
2023/08/14 10:50:48;;;;;;;4.75;2.72;;;;;;;;;;6285226;28;20290;-85
2023/08/14 10:54:03;;;;;;;4.53;2.30;;;;;;;;;;6285260;28;20430;-83
2023/08/14 10:57:12;;;;;;;7.35;2.70;;;;;;;;;;6285073;28;20291;-78
2023/08/14 11:00:24;;;;;;;2.40;2.10;;;;;;;;;;6284630;28;20583;-78
2023/08/14 11:03:30;;;;;;;5.45;2.60;;;;;;;;;;6284545;28;20299;-79
2023/08/14 11:07:05;;;;;;;3.60;2.15;;;;;;;;;;6284340;28;20318;-79
2023/08/14 11:10:14;;;;;;;7.78;2.50;;;;;;;;;;6285796;28;20480;-79
2023/08/14 11:13:20;;;;;;;5.43;2.30;;;;;;;;;;6284401;28;20307;-79
2023/08/14 11:16:24;;;;;;;5.32;2.38;;;;;;;;;;6284612;28;20290;-79
2023/08/14 11:19:28;;;;;;;4.97;2.20;;;;;;;;;;6284536;28;20290;-78
2023/08/14 11:22:32;;;;;;;4.00;2.58;;;;;;;;;;6284652;28;20299;-79
2023/08/14 11:25:36;;;;;;;8.15;2.63;;;;;;;;;;6284518;28;20303;-79
2023/08/14 11:28:41;;;;;;;5.78;2.20;;;;;;;;;;6286547;28;20294;-80
2023/08/14 11:31:45;;;;;;;3.13;2.58;;;;;;;;;;6284727;28;20299;-80
2023/08/14 11:34:52;;;;;;;4.25;2.30;;;;;;;;;;6283968;28;20580;-80
2023/08/14 11:37:56;;;;;;;3.95;2.80;;;;;;;;;;6284314;28;20298;-80
2023/08/14 11:41:00;;;;;;;10.77;2.65;;;;;;;;;;6284800;28;20294;-80
2023/08/14 11:44:06;;;;;;;4.88;2.17;;;;;;;;;;6283814;28;20596;-80
2023/08/14 11:47:11;;;;;;;5.10;2.60;;;;;;;;;;6284508;28;20299;-80
2023/08/14 11:50:16;;;;;;;5.50;2.75;;;;;;;;;;6283804;28;20303;-80
2023/08/14 11:53:20;;;;;;;6.85;2.85;;;;;;;;;;6284147;28;20324;-80
2023/08/14 11:56:24;;;;;;;6.88;2.60;;;;;;;;;;6284741;28;20318;-80
2023/08/14 11:59:29;;;;;;;2.17;2.08;;;;;;;;;;6284251;28;20378;-80
2023/08/14 12:02:33;;;;;;;4.38;2.53;;;;;;;;;;6284428;28;20295;-80
2023/08/14 12:05:39;;;;;;;4.80;2.40;;;;;;;;;;6283619;28;20295;-80
2023/08/14 12:08:42;;;;;;;3.58;2.60;;;;;;;;;;6283792;28;20584;-80
2023/08/14 12:11:46;;;;;;;11.05;2.55;;;;;;;;;;6284072;28;20607;-80
2023/08/14 12:14:53;;;;;;;5.13;2.38;;;;;;;;;;6283536;28;20306;-80
2023/08/14 12:17:56;;;;;;;5.80;2.42;;;;;;;;;;6287453;28;20435;-78
2023/08/14 12:21:01;;;;;;;2.50;2.33;;;;;;;;;;6288509;28;20575;-78
2023/08/14 12:24:05;;;;;;;9.38;2.80;;;;;;;;;;6286752;28;20302;-79
2023/08/14 12:27:16;;;;;;;2.50;2.28;;;;;;;;;;6289775;28;20286;-78
2023/08/14 12:30:22;;;;;;;5.68;2.40;;;;;;;;;;6287061;28;20279;-80
2023/08/14 12:33:26;;;;;;;2.60;2.00;;;;;;;;;;6290661;28;20302;-78
2023/08/14 12:36:30;;;;;;;8.00;2.85;;;;;;;;;;6288551;28;20287;-80
2023/08/14 12:39:34;;;;;;;8.93;2.10;;;;;;;;;;6287379;28;20363;-80
2023/08/14 12:42:38;;;;;;;2.30;1.98;;;;;;;;;;6286642;28;20429;-79
2023/08/14 12:45:43;;;;;;;3.72;2.33;;;;;;;;;;6288387;28;20441;-79
2023/08/14 12:48:47;;;;;;;2.75;1.90;;;;;;;;;;6286530;28;20298;-79
2023/08/14 12:51:53;;;;;;;2.15;2.00;;;;;;;;;;6288386;28;20311;-79
2023/08/14 12:54:56;;;;;;;2.58;2.05;;;;;;;;;;6290024;28;20552;-79
2023/08/14 12:58:08;;;;;;;7.10;2.47;;;;;;;;;;6287996;28;20295;-79
2023/08/14 13:01:13;;;;;;;6.72;2.58;;;;;;;;;;6286871;28;20295;-79
2023/08/14 13:04:17;;;;;;;3.38;2.50;;;;;;;;;;6287172;28;20318;-80
2023/08/14 13:07:21;;;;;;;8.38;2.30;;;;;;;;;;6286750;28;20442;-79
2023/08/14 13:10:25;;;;;;;2.63;2.42;;;;;;;;;;6287132;28;20290;-79
2023/08/14 13:13:29;;;;;;;3.60;2.17;;;;;;;;;;6287606;28;20294;-80
2023/08/14 13:16:34;;;;;;;3.00;2.40;;;;;;;;;;6287390;28;20615;-80
2023/08/14 13:19:39;;;;;;;3.95;2.50;;;;;;;;;;6287145;28;20291;-79
2023/08/14 13:22:43;;;;;;;2.92;2.50;;;;;;;;;;6287042;28;20295;-79
2023/08/14 13:25:47;;;;;;;3.00;2.10;;;;;;;;;;6287589;28;20298;-79
2023/08/14 13:28:51;;;;;;;2.47;2.38;;;;;;;;;;6286540;28;20319;-79
2023/08/14 13:31:56;;;;;;;7.32;2.67;;;;;;;;;;6287012;28;20435;-79
2023/08/14 13:35:00;;;;;;;3.80;2.30;;;;;;;;;;6286684;28;20402;-80
2023/08/14 13:38:04;;;;;;;4.43;1.65;;;;;;;;;;6288466;28;20303;-78
2023/08/14 13:41:10;;;;;;;2.40;2.20;;;;;;;;;;6287088;28;20303;-79
2023/08/14 13:44:13;;;;;;;5.50;2.47;;;;;;;;;;6285328;28;20303;-79
2023/08/14 13:47:20;;;;;;;3.45;2.72;;;;;;;;;;6286987;28;20298;-79
2023/08/14 13:50:25;;;;;;;3.25;2.20;;;;;;;;;;6286534;28;20292;-79
2023/08/14 13:53:36;;;;;;;2.60;2.40;;;;;;;;;;6286065;28;20300;-79
2023/08/14 13:56:40;;;;;;;2.65;2.40;;;;;;;;;;6286297;28;20318;-79
2023/08/14 13:59:44;;;;;;;5.75;2.22;;;;;;;;;;6286104;28;20295;-79
2023/08/14 14:02:49;;;;;;;2.78;2.40;;;;;;;;;;6286412;28;20440;-79
2023/08/14 14:05:53;;;;;;;6.43;2.33;;;;;;;;;;6270560;28;20295;-79
2023/08/14 14:08:57;;;;;;;5.03;2.42;;;;;;;;;;6287489;28;20295;-79
2023/08/14 14:12:01;;;;;;;4.35;2.50;;;;;;;;;;6287722;28;20290;-79
2023/08/14 14:15:06;;;;;;;4.25;2.90;;;;;;;;;;6287514;28;20582;-79
2023/08/14 14:18:11;;;;;;;6.22;2.47;;;;;;;;;;6290091;28;20316;-80
2023/08/14 14:21:15;;;;;;;4.60;2.50;;;;;;;;;;6287923;28;20291;-78
2023/08/14 14:24:19;;;;;;;3.50;2.33;;;;;;;;;;6286489;28;20310;-78
2023/08/14 14:27:23;;;;;;;4.20;1.80;;;;;;;;;;6287344;28;20306;-79
2023/08/14 14:30:27;;;;;;;7.60;2.40;;;;;;;;;;6286864;28;20291;-79
2023/08/14 14:33:33;;;;;;;5.35;2.88;;;;;;;;;;6285397;28;20540;-76
2023/08/14 14:36:37;;;;;;;3.28;2.35;;;;;;;;;;6287195;28;20243;-80
2023/08/14 14:39:41;;;;;;;4.15;2.60;;;;;;;;;;6285813;28;20563;-80
2023/08/14 14:42:44;;;;;;;3.63;2.67;;;;;;;;;;6286639;28;20244;-79
2023/08/14 14:45:49;;;;;;;6.05;2.55;;;;;;;;;;6287487;28;20263;-85
2023/08/14 14:48:55;;;;;;;7.03;2.50;;;;;;;;;;6286940;28;20291;-80
2023/08/14 14:52:01;;;;;;;6.30;2.28;;;;;;;;;;6288865;28;20609;-86
2023/08/14 14:55:06;;;;;;;5.90;2.60;;;;;;;;;;6289076;28;20287;-83
2023/08/14 14:58:09;;;;;;;8.98;3.10;;;;;;;;;;6286088;28;20298;-78
2023/08/14 15:01:14;;;;;;;6.95;2.50;;;;;;;;;;6285088;28;20298;-79
2023/08/14 15:04:19;;;;;;;3.58;2.38;;;;;;;;;;6284378;28;20291;-82
2023/08/14 15:07:23;;;;;;;4.63;2.50;;;;;;;;;;6285417;28;20507;-83
2023/08/14 15:10:27;;;;;;;7.10;2.53;;;;;;;;;;6283180;28;20533;-79
2023/08/14 15:13:35;;;;;;;2.47;2.38;;;;;;;;;;6284592;28;20571;-78
2023/08/14 15:16:39;;;;;;;5.15;2.60;;;;;;;;;;6284822;28;20487;-78
2023/08/14 15:19:44;;;;;;;4.68;2.45;;;;;;;;;;6284328;28;20306;-78
2023/08/14 15:22:48;;;;;;;2.92;2.30;;;;;;;;;;6283939;28;20324;-80
2023/08/14 15:25:53;;;;;;;8.98;3.10;;;;;;;;;;6284668;28;20299;-79
2023/08/14 15:28:57;;;;;;;4.95;2.60;;;;;;;;;;6284259;28;20294;-79
2023/08/14 15:32:01;;;;;;;5.55;3.05;;;;;;;;;;6284433;28;20296;-77
2023/08/14 15:35:07;;;;;;;8.63;2.70;;;;;;;;;;6283573;28;20303;-77
2023/08/14 15:38:11;;;;;;;5.25;3.03;;;;;;;;;;6284286;28;20303;-82
2023/08/14 15:41:14;;;;;;;5.38;2.78;;;;;;;;;;6288385;28;20287;-81
2023/08/14 15:44:18;;;;;;;5.68;2.80;;;;;;;;;;6291177;28;20303;-82
2023/08/14 15:47:23;;;;;;;4.82;2.60;;;;;;;;;;6284395;28;20298;-82
2023/08/14 15:50:28;;;;;;;4.03;2.60;;;;;;;;;;6285481;28;20299;-81
2023/08/14 15:53:32;;;;;;;8.82;2.88;;;;;;;;;;6287859;28;20303;-82
2023/08/14 15:56:36;;;;;;;8.02;3.35;;;;;;;;;;6289973;28;20294;-83
2023/08/14 15:59:40;;;;;;;8.70;3.17;;;;;;;;;;6289216;28;20303;-82
2023/08/14 16:02:43;;;;;;;5.20;2.70;;;;;;;;;;6289550;28;20290;-81
2023/08/14 16:05:54;;;;;;;7.38;3.00;;;;;;;;;;6291525;28;20350;-82
2023/08/14 16:08:58;;;;;;;9.38;3.25;;;;;;;;;;6290233;28;20287;-82
2023/08/14 16:12:02;;;;;;;3.60;2.47;;;;;;;;;;6289563;28;20299;-82
2023/08/14 16:15:07;;;;;;;7.30;2.90;;;;;;;;;;6289176;28;20311;-82
2023/08/14 16:18:11;;;;;;;4.38;2.58;;;;;;;;;;6288275;28;20514;-82
2023/08/14 16:21:16;;;;;;;4.72;2.85;;;;;;;;;;6288994;28;20294;-81
2023/08/14 16:24:20;;;;;;;3.53;2.42;;;;;;;;;;6290421;28;20287;-81
2023/08/14 16:27:24;;;;;;;13.32;2.95;;;;;;;;;;6289604;28;20315;-83
2023/08/14 16:30:27;;;;;;;11.00;3.00;;;;;;;;;;6289179;28;20544;-84
2023/08/14 16:33:31;;;;;;;6.00;3.00;;;;;;;;;;6287950;28;20302;-78
2023/08/14 16:36:36;;;;;;;4.68;3.03;;;;;;;;;;6288098;28;20239;-70
2023/08/14 16:39:40;;;;;;;5.43;2.83;;;;;;;;;;6286643;28;20295;-70
2023/08/14 16:42:44;;;;;;;4.50;3.00;;;;;;;;;;6287756;28;20239;-68
2023/08/14 16:45:48;;;;;;;9.00;3.45;;;;;;;;;;6288453;28;20275;-69
2023/08/14 16:48:53;;;;;;;8.35;3.15;;;;;;;;;;6287599;28;20290;-69
2023/08/14 16:51:58;;;;;;;6.80;2.80;;;;;;;;;;6288002;28;20290;-70
2023/08/14 16:55:02;;;;;;;5.88;3.30;;;;;;;;;;6287369;28;20295;-69
2023/08/14 16:58:06;;;;;;;10.20;3.47;;;;;;;;;;6287332;28;20315;-69
2023/08/14 17:01:10;;;;;;;7.30;3.10;;;;;;;;;;6287693;28;20290;-69
2023/08/14 17:04:14;;;;;;;6.80;2.95;;;;;;;;;;6286707;28;20299;-70
2023/08/14 17:07:19;;;;;;;5.75;2.55;;;;;;;;;;6288040;28;20294;-69
2023/08/14 17:10:23;;;;;;;5.75;2.80;;;;;;;;;;6286809;28;20307;-70
2023/08/14 17:13:27;;;;;;;4.78;3.25;;;;;;;;;;6286560;28;20323;-69
2023/08/14 17:16:31;;;;;;;9.32;3.78;;;;;;;;;;6287245;28;20579;-68
2023/08/14 17:19:35;;;;;;;6.70;3.30;;;;;;;;;;6286751;28;20421;-69
2023/08/14 17:22:40;;;;;;;5.57;2.90;;;;;;;;;;6286469;28;20299;-69
2023/08/14 17:25:44;;;;;;;6.13;3.08;;;;;;;;;;6287091;28;20300;-72
2023/08/14 17:28:48;;;;;;;7.47;3.25;;;;;;;;;;6286531;28;20306;-70
2023/08/14 17:31:53;;;;;;;4.97;2.83;;;;;;;;;;6287128;28;20287;-71
2023/08/14 17:34:57;;;;;;;3.55;2.85;;;;;;;;;;6286333;28;20303;-70
2023/08/14 17:38:02;;;;;;;9.98;2.80;;;;;;;;;;6286425;28;20319;-70
2023/08/14 17:41:06;;;;;;;8.32;3.22;;;;;;;;;;6287061;28;20291;-70
2023/08/14 17:44:10;;;;;;;4.85;3.00;;;;;;;;;;6286495;28;20283;-70
2023/08/14 17:47:13;;;;;;;5.35;2.78;;;;;;;;;;6286881;28;20302;-70
2023/08/14 17:50:17;;;;;;;3.00;2.80;;;;;;;;;;6286289;28;20295;-71
2023/08/14 17:53:24;;;;;;;10.93;3.15;;;;;;;;;;6286237;28;20311;-70
2023/08/14 17:56:28;;;;;;;3.97;2.90;;;;;;;;;;6286824;28;20298;-70
2023/08/14 17:59:31;;;;;;;4.15;3.00;;;;;;;;;;6286254;28;20299;-69
2023/08/14 18:02:36;;;;;;;3.35;2.80;;;;;;;;;;6286668;28;20299;-70
2023/08/14 18:05:39;;;;;;;5.55;3.33;;;;;;;;;;6285773;28;20298;-69
2023/08/14 18:08:45;;;;;;;6.03;3.50;;;;;;;;;;6285592;28;20578;-69
2023/08/14 18:11:49;;;;;;;4.85;3.22;;;;;;;;;;6286564;28;20588;-70
2023/08/14 18:14:53;;;;;;;6.47;3.50;;;;;;;;;;6284776;28;20294;-69
2023/08/14 18:17:56;;;;;;;6.47;3.10;;;;;;;;;;6285778;28;20583;-69
2023/08/14 18:21:02;;;;;;;6.28;3.03;;;;;;;;;;6285965;28;20310;-69
2023/08/14 18:24:07;;;;;;;6.40;2.97;;;;;;;;;;6285345;28;20595;-69
2023/08/14 18:27:12;;;;;;;9.05;3.03;;;;;;;;;;6285596;28;20575;-71